sensor_id;sensor_type;location;lat;lon;timestamp;P1;durP1;ratioP1;P2;durP2;ratioP2
72573;SDS011;60603;52.548;13.420;2023-02-28T00:01:19;6.78;;;2.95;;
72573;SDS011;60603;52.548;13.420;2023-02-28T00:03:46;7.50;;;2.88;;
72573;SDS011;60603;52.548;13.420;2023-02-28T00:06:12;7.70;;;3.05;;
72573;SDS011;60603;52.548;13.420;2023-02-28T00:08:38;8.75;;;3.00;;
72573;SDS011;60603;52.548;13.420;2023-02-28T00:11:05;6.50;;;2.83;;
72573;SDS011;60603;52.548;13.420;2023-02-28T00:13:33;7.75;;;3.35;;
72573;SDS011;60603;52.548;13.420;2023-02-28T00:16:02;8.18;;;3.30;;
72573;SDS011;60603;52.548;13.420;2023-02-28T00:18:29;8.43;;;2.75;;
72573;SDS011;60603;52.548;13.420;2023-02-28T00:20:56;7.93;;;2.65;;
72573;SDS011;60603;52.548;13.420;2023-02-28T00:23:23;6.38;;;2.55;;
72573;SDS011;60603;52.548;13.420;2023-02-28T00:25:49;7.28;;;3.40;;
72573;SDS011;60603;52.548;13.420;2023-02-28T00:28:15;6.72;;;2.70;;
72573;SDS011;60603;52.548;13.420;2023-02-28T00:30:41;6.35;;;2.30;;
72573;SDS011;60603;52.548;13.420;2023-02-28T00:33:07;6.13;;;2.55;;
72573;SDS011;60603;52.548;13.420;2023-02-28T00:35:33;7.97;;;2.60;;
72573;SDS011;60603;52.548;13.420;2023-02-28T00:37:59;4.35;;;2.25;;
72573;SDS011;60603;52.548;13.420;2023-02-28T00:40:25;5.00;;;2.10;;
72573;SDS011;60603;52.548;13.420;2023-02-28T00:42:51;7.55;;;2.60;;
72573;SDS011;60603;52.548;13.420;2023-02-28T00:45:16;6.20;;;2.55;;
72573;SDS011;60603;52.548;13.420;2023-02-28T00:47:42;7.10;;;2.45;;
72573;SDS011;60603;52.548;13.420;2023-02-28T00:50:09;6.82;;;2.58;;
72573;SDS011;60603;52.548;13.420;2023-02-28T00:52:35;6.72;;;2.42;;
72573;SDS011;60603;52.548;13.420;2023-02-28T00:55:01;5.55;;;2.58;;
72573;SDS011;60603;52.548;13.420;2023-02-28T00:57:27;6.82;;;2.72;;
72573;SDS011;60603;52.548;13.420;2023-02-28T00:59:53;8.48;;;2.75;;
72573;SDS011;60603;52.548;13.420;2023-02-28T01:02:20;6.63;;;2.47;;
72573;SDS011;60603;52.548;13.420;2023-02-28T01:04:47;6.88;;;2.30;;
72573;SDS011;60603;52.548;13.420;2023-02-28T01:07:13;4.90;;;2.22;;
72573;SDS011;60603;52.548;13.420;2023-02-28T01:09:40;7.38;;;2.78;;
72573;SDS011;60603;52.548;13.420;2023-02-28T01:12:07;9.00;;;2.75;;
72573;SDS011;60603;52.548;13.420;2023-02-28T01:14:33;7.22;;;2.35;;
72573;SDS011;60603;52.548;13.420;2023-02-28T01:17:00;7.80;;;2.78;;
72573;SDS011;60603;52.548;13.420;2023-02-28T01:19:26;6.15;;;2.70;;
72573;SDS011;60603;52.548;13.420;2023-02-28T01:21:52;6.07;;;3.03;;
72573;SDS011;60603;52.548;13.420;2023-02-28T01:24:18;7.65;;;2.88;;
72573;SDS011;60603;52.548;13.420;2023-02-28T01:26:44;7.55;;;3.10;;
72573;SDS011;60603;52.548;13.420;2023-02-28T01:29:10;6.45;;;2.83;;
72573;SDS011;60603;52.548;13.420;2023-02-28T01:31:36;6.18;;;3.17;;
72573;SDS011;60603;52.548;13.420;2023-02-28T01:34:02;6.45;;;2.58;;
72573;SDS011;60603;52.548;13.420;2023-02-28T01:36:28;7.25;;;2.35;;
72573;SDS011;60603;52.548;13.420;2023-02-28T01:38:54;7.90;;;2.80;;
72573;SDS011;60603;52.548;13.420;2023-02-28T01:41:21;6.90;;;2.80;;
72573;SDS011;60603;52.548;13.420;2023-02-28T01:46:56;6.43;;;2.75;;
72573;SDS011;60603;52.548;13.420;2023-02-28T01:49:22;6.60;;;2.65;;
72573;SDS011;60603;52.548;13.420;2023-02-28T01:51:49;5.88;;;2.70;;
72573;SDS011;60603;52.548;13.420;2023-02-28T01:54:17;7.07;;;2.50;;
72573;SDS011;60603;52.548;13.420;2023-02-28T01:57:01;6.28;;;2.72;;
72573;SDS011;60603;52.548;13.420;2023-02-28T01:59:33;6.20;;;2.60;;
72573;SDS011;60603;52.548;13.420;2023-02-28T02:02:03;9.73;;;3.00;;
72573;SDS011;60603;52.548;13.420;2023-02-28T02:04:32;7.68;;;2.88;;
72573;SDS011;60603;52.548;13.420;2023-02-28T02:07:02;6.15;;;2.70;;
72573;SDS011;60603;52.548;13.420;2023-02-28T02:09:28;8.50;;;2.83;;
72573;SDS011;60603;52.548;13.420;2023-02-28T02:11:54;8.48;;;2.70;;
72573;SDS011;60603;52.548;13.420;2023-02-28T02:17:33;8.68;;;3.08;;
72573;SDS011;60603;52.548;13.420;2023-02-28T02:23:25;5.65;;;2.50;;
72573;SDS011;60603;52.548;13.420;2023-02-28T02:25:56;6.68;;;2.83;;
72573;SDS011;60603;52.548;13.420;2023-02-28T02:39:29;8.05;;;3.55;;
72573;SDS011;60603;52.548;13.420;2023-02-28T02:42:08;8.68;;;3.40;;
72573;SDS011;60603;52.548;13.420;2023-02-28T02:44:48;6.93;;;3.25;;
72573;SDS011;60603;52.548;13.420;2023-02-28T02:47:17;8.65;;;3.50;;
72573;SDS011;60603;52.548;13.420;2023-02-28T02:49:46;7.25;;;3.58;;
72573;SDS011;60603;52.548;13.420;2023-02-28T02:52:15;8.48;;;3.63;;
72573;SDS011;60603;52.548;13.420;2023-02-28T02:54:44;10.35;;;3.45;;
72573;SDS011;60603;52.548;13.420;2023-02-28T02:57:13;6.82;;;2.92;;
72573;SDS011;60603;52.548;13.420;2023-02-28T02:59:44;7.13;;;3.30;;
72573;SDS011;60603;52.548;13.420;2023-02-28T03:02:12;6.97;;;2.90;;
72573;SDS011;60603;52.548;13.420;2023-02-28T03:04:43;9.30;;;3.55;;
72573;SDS011;60603;52.548;13.420;2023-02-28T03:07:13;9.75;;;3.33;;
72573;SDS011;60603;52.548;13.420;2023-02-28T03:09:39;8.85;;;3.28;;
72573;SDS011;60603;52.548;13.420;2023-02-28T03:12:06;7.93;;;3.30;;
72573;SDS011;60603;52.548;13.420;2023-02-28T03:20:11;9.48;;;3.65;;
72573;SDS011;60603;52.548;13.420;2023-02-28T03:23:06;10.73;;;3.92;;
72573;SDS011;60603;52.548;13.420;2023-02-28T03:33:42;10.13;;;3.60;;
72573;SDS011;60603;52.548;13.420;2023-02-28T03:36:16;9.05;;;3.83;;
72573;SDS011;60603;52.548;13.420;2023-02-28T03:38:54;10.55;;;3.85;;
72573;SDS011;60603;52.548;13.420;2023-02-28T03:41:32;10.07;;;4.18;;
72573;SDS011;60603;52.548;13.420;2023-02-28T03:44:13;8.02;;;3.58;;
72573;SDS011;60603;52.548;13.420;2023-02-28T03:52:34;9.43;;;4.10;;
72573;SDS011;60603;52.548;13.420;2023-02-28T03:55:03;11.05;;;3.95;;
72573;SDS011;60603;52.548;13.420;2023-02-28T04:00:20;9.02;;;4.07;;
72573;SDS011;60603;52.548;13.420;2023-02-28T04:02:47;12.68;;;4.40;;
72573;SDS011;60603;52.548;13.420;2023-02-28T04:05:18;9.80;;;4.07;;
72573;SDS011;60603;52.548;13.420;2023-02-28T04:07:45;10.65;;;4.50;;
72573;SDS011;60603;52.548;13.420;2023-02-28T04:10:11;10.73;;;4.63;;
72573;SDS011;60603;52.548;13.420;2023-02-28T04:12:37;9.40;;;3.88;;
72573;SDS011;60603;52.548;13.420;2023-02-28T04:15:03;9.75;;;4.90;;
72573;SDS011;60603;52.548;13.420;2023-02-28T04:17:29;10.30;;;4.30;;
72573;SDS011;60603;52.548;13.420;2023-02-28T04:19:55;15.77;;;4.53;;
72573;SDS011;60603;52.548;13.420;2023-02-28T04:22:22;11.73;;;4.65;;
72573;SDS011;60603;52.548;13.420;2023-02-28T04:24:51;10.05;;;4.30;;
72573;SDS011;60603;52.548;13.420;2023-02-28T04:27:20;12.73;;;4.82;;
72573;SDS011;60603;52.548;13.420;2023-02-28T04:29:46;10.55;;;5.00;;
72573;SDS011;60603;52.548;13.420;2023-02-28T04:32:12;12.68;;;5.63;;
72573;SDS011;60603;52.548;13.420;2023-02-28T04:34:38;14.48;;;5.13;;
72573;SDS011;60603;52.548;13.420;2023-02-28T04:37:04;11.75;;;4.97;;
72573;SDS011;60603;52.548;13.420;2023-02-28T04:39:34;11.88;;;5.15;;
72573;SDS011;60603;52.548;13.420;2023-02-28T04:42:00;10.93;;;5.63;;
72573;SDS011;60603;52.548;13.420;2023-02-28T04:44:26;10.45;;;4.72;;
72573;SDS011;60603;52.548;13.420;2023-02-28T04:46:52;9.18;;;4.10;;
72573;SDS011;60603;52.548;13.420;2023-02-28T04:49:18;11.20;;;6.10;;
72573;SDS011;60603;52.548;13.420;2023-02-28T04:51:44;7.88;;;4.50;;
72573;SDS011;60603;52.548;13.420;2023-02-28T04:54:10;12.23;;;4.60;;
72573;SDS011;60603;52.548;13.420;2023-02-28T04:56:36;12.68;;;4.28;;
72573;SDS011;60603;52.548;13.420;2023-02-28T04:59:01;10.48;;;4.28;;
72573;SDS011;60603;52.548;13.420;2023-02-28T05:01:31;10.02;;;4.28;;
72573;SDS011;60603;52.548;13.420;2023-02-28T05:06:27;12.38;;;4.40;;
72573;SDS011;60603;52.548;13.420;2023-02-28T05:08:54;10.68;;;4.78;;
72573;SDS011;60603;52.548;13.420;2023-02-28T05:11:24;10.82;;;4.38;;
72573;SDS011;60603;52.548;13.420;2023-02-28T05:14:00;10.63;;;4.80;;
72573;SDS011;60603;52.548;13.420;2023-02-28T05:16:30;13.20;;;5.03;;
72573;SDS011;60603;52.548;13.420;2023-02-28T05:18:57;10.10;;;4.70;;
72573;SDS011;60603;52.548;13.420;2023-02-28T05:23:49;10.35;;;4.75;;
72573;SDS011;60603;52.548;13.420;2023-02-28T05:26:15;11.15;;;4.72;;
72573;SDS011;60603;52.548;13.420;2023-02-28T05:28:41;11.32;;;5.25;;
72573;SDS011;60603;52.548;13.420;2023-02-28T05:31:08;14.10;;;4.95;;
72573;SDS011;60603;52.548;13.420;2023-02-28T05:33:36;12.25;;;5.38;;
72573;SDS011;60603;52.548;13.420;2023-02-28T05:36:02;9.88;;;4.90;;
72573;SDS011;60603;52.548;13.420;2023-02-28T05:38:28;12.57;;;5.15;;
72573;SDS011;60603;52.548;13.420;2023-02-28T05:40:54;13.20;;;6.28;;
72573;SDS011;60603;52.548;13.420;2023-02-28T05:43:26;14.23;;;5.68;;
72573;SDS011;60603;52.548;13.420;2023-02-28T05:45:52;9.57;;;4.70;;
72573;SDS011;60603;52.548;13.420;2023-02-28T05:48:18;14.45;;;5.82;;
72573;SDS011;60603;52.548;13.420;2023-02-28T05:50:44;14.57;;;5.50;;
72573;SDS011;60603;52.548;13.420;2023-02-28T05:53:11;17.67;;;6.88;;
72573;SDS011;60603;52.548;13.420;2023-02-28T05:55:37;15.80;;;6.43;;
72573;SDS011;60603;52.548;13.420;2023-02-28T05:58:03;12.85;;;5.63;;
72573;SDS011;60603;52.548;13.420;2023-02-28T06:00:29;11.45;;;5.70;;
72573;SDS011;60603;52.548;13.420;2023-02-28T06:02:55;12.15;;;6.15;;
72573;SDS011;60603;52.548;13.420;2023-02-28T06:05:27;15.35;;;6.32;;
72573;SDS011;60603;52.548;13.420;2023-02-28T06:07:53;19.13;;;6.75;;
72573;SDS011;60603;52.548;13.420;2023-02-28T06:10:19;15.65;;;6.85;;
72573;SDS011;60603;52.548;13.420;2023-02-28T06:12:45;14.43;;;5.95;;
72573;SDS011;60603;52.548;13.420;2023-02-28T06:15:14;14.90;;;6.93;;
72573;SDS011;60603;52.548;13.420;2023-02-28T06:17:41;14.65;;;7.05;;
72573;SDS011;60603;52.548;13.420;2023-02-28T06:20:08;14.60;;;6.72;;
72573;SDS011;60603;52.548;13.420;2023-02-28T06:22:36;16.80;;;7.03;;
72573;SDS011;60603;52.548;13.420;2023-02-28T06:25:03;14.68;;;6.78;;
72573;SDS011;60603;52.548;13.420;2023-02-28T06:27:30;14.55;;;6.53;;
72573;SDS011;60603;52.548;13.420;2023-02-28T06:29:56;18.02;;;7.90;;
72573;SDS011;60603;52.548;13.420;2023-02-28T06:32:22;13.48;;;6.18;;
72573;SDS011;60603;52.548;13.420;2023-02-28T06:34:48;15.55;;;7.05;;
72573;SDS011;60603;52.548;13.420;2023-02-28T06:37:15;15.10;;;6.45;;
72573;SDS011;60603;52.548;13.420;2023-02-28T06:39:42;15.35;;;6.25;;
72573;SDS011;60603;52.548;13.420;2023-02-28T06:42:08;15.00;;;7.13;;
72573;SDS011;60603;52.548;13.420;2023-02-28T06:44:34;16.23;;;6.40;;
72573;SDS011;60603;52.548;13.420;2023-02-28T06:47:03;10.43;;;5.80;;
72573;SDS011;60603;52.548;13.420;2023-02-28T06:49:31;13.85;;;6.35;;
72573;SDS011;60603;52.548;13.420;2023-02-28T06:51:58;15.38;;;6.55;;
72573;SDS011;60603;52.548;13.420;2023-02-28T06:54:24;16.52;;;6.97;;
72573;SDS011;60603;52.548;13.420;2023-02-28T06:56:50;12.27;;;6.07;;
72573;SDS011;60603;52.548;13.420;2023-02-28T06:59:16;19.30;;;7.05;;
72573;SDS011;60603;52.548;13.420;2023-02-28T07:01:42;13.50;;;6.07;;
72573;SDS011;60603;52.548;13.420;2023-02-28T07:04:08;11.82;;;5.43;;
72573;SDS011;60603;52.548;13.420;2023-02-28T07:06:34;14.63;;;5.50;;
72573;SDS011;60603;52.548;13.420;2023-02-28T07:09:00;13.40;;;5.53;;
72573;SDS011;60603;52.548;13.420;2023-02-28T07:11:27;13.50;;;5.28;;
72573;SDS011;60603;52.548;13.420;2023-02-28T07:13:53;16.52;;;5.90;;
72573;SDS011;60603;52.548;13.420;2023-02-28T07:16:20;12.40;;;6.28;;
72573;SDS011;60603;52.548;13.420;2023-02-28T07:18:47;13.85;;;5.57;;
72573;SDS011;60603;52.548;13.420;2023-02-28T07:21:13;11.32;;;5.63;;
72573;SDS011;60603;52.548;13.420;2023-02-28T07:23:39;10.57;;;4.72;;
72573;SDS011;60603;52.548;13.420;2023-02-28T07:26:06;10.30;;;5.22;;
72573;SDS011;60603;52.548;13.420;2023-02-28T07:28:32;12.73;;;5.22;;
72573;SDS011;60603;52.548;13.420;2023-02-28T07:31:05;13.93;;;5.63;;
72573;SDS011;60603;52.548;13.420;2023-02-28T07:33:39;14.55;;;5.30;;
72573;SDS011;60603;52.548;13.420;2023-02-28T07:36:11;13.25;;;5.72;;
72573;SDS011;60603;52.548;13.420;2023-02-28T07:38:41;11.57;;;5.95;;
72573;SDS011;60603;52.548;13.420;2023-02-28T07:41:08;15.30;;;5.68;;
72573;SDS011;60603;52.548;13.420;2023-02-28T07:43:35;18.25;;;6.88;;
72573;SDS011;60603;52.548;13.420;2023-02-28T07:46:05;13.02;;;5.47;;
72573;SDS011;60603;52.548;13.420;2023-02-28T07:48:33;13.02;;;6.25;;
72573;SDS011;60603;52.548;13.420;2023-02-28T07:51:00;16.33;;;7.10;;
72573;SDS011;60603;52.548;13.420;2023-02-28T07:53:27;20.27;;;7.28;;
72573;SDS011;60603;52.548;13.420;2023-02-28T07:55:56;14.90;;;5.97;;
72573;SDS011;60603;52.548;13.420;2023-02-28T07:58:23;14.82;;;6.47;;
72573;SDS011;60603;52.548;13.420;2023-02-28T08:00:49;12.95;;;6.15;;
72573;SDS011;60603;52.548;13.420;2023-02-28T08:03:17;12.38;;;5.63;;
72573;SDS011;60603;52.548;13.420;2023-02-28T08:05:43;14.07;;;6.72;;
72573;SDS011;60603;52.548;13.420;2023-02-28T08:08:09;16.00;;;6.88;;
72573;SDS011;60603;52.548;13.420;2023-02-28T08:10:35;13.00;;;6.03;;
72573;SDS011;60603;52.548;13.420;2023-02-28T08:13:01;16.10;;;6.10;;
72573;SDS011;60603;52.548;13.420;2023-02-28T08:15:27;9.45;;;4.90;;
72573;SDS011;60603;52.548;13.420;2023-02-28T08:17:53;10.30;;;5.22;;
72573;SDS011;60603;52.548;13.420;2023-02-28T08:20:21;10.07;;;4.30;;
72573;SDS011;60603;52.548;13.420;2023-02-28T08:22:48;9.77;;;4.03;;
72573;SDS011;60603;52.548;13.420;2023-02-28T08:25:14;8.70;;;4.68;;
72573;SDS011;60603;52.548;13.420;2023-02-28T08:27:40;10.32;;;4.40;;
72573;SDS011;60603;52.548;13.420;2023-02-28T08:30:06;10.63;;;3.85;;
72573;SDS011;60603;52.548;13.420;2023-02-28T08:32:33;8.50;;;4.03;;
72573;SDS011;60603;52.548;13.420;2023-02-28T08:34:59;5.80;;;2.60;;
72573;SDS011;60603;52.548;13.420;2023-02-28T08:37:25;8.40;;;2.58;;
72573;SDS011;60603;52.548;13.420;2023-02-28T08:39:51;5.97;;;2.92;;
72573;SDS011;60603;52.548;13.420;2023-02-28T08:42:17;6.43;;;2.67;;
72573;SDS011;60603;52.548;13.420;2023-02-28T08:44:43;6.30;;;2.30;;
72573;SDS011;60603;52.548;13.420;2023-02-28T08:47:09;4.95;;;2.22;;
72573;SDS011;60603;52.548;13.420;2023-02-28T08:49:35;7.85;;;2.22;;
72573;SDS011;60603;52.548;13.420;2023-02-28T08:52:03;5.72;;;2.03;;
72573;SDS011;60603;52.548;13.420;2023-02-28T08:54:29;7.38;;;2.10;;
72573;SDS011;60603;52.548;13.420;2023-02-28T08:56:57;8.35;;;2.78;;
72573;SDS011;60603;52.548;13.420;2023-02-28T08:59:22;6.15;;;1.88;;
72573;SDS011;60603;52.548;13.420;2023-02-28T09:01:48;5.45;;;1.90;;
72573;SDS011;60603;52.548;13.420;2023-02-28T09:04:14;5.05;;;2.05;;
72573;SDS011;60603;52.548;13.420;2023-02-28T09:06:40;5.88;;;1.63;;
72573;SDS011;60603;52.548;13.420;2023-02-28T09:09:06;8.52;;;1.90;;
72573;SDS011;60603;52.548;13.420;2023-02-28T09:11:35;3.70;;;1.60;;
72573;SDS011;60603;52.548;13.420;2023-02-28T09:14:02;4.93;;;1.45;;
72573;SDS011;60603;52.548;13.420;2023-02-28T09:16:29;5.45;;;1.63;;
72573;SDS011;60603;52.548;13.420;2023-02-28T09:18:56;4.53;;;1.55;;
72573;SDS011;60603;52.548;13.420;2023-02-28T09:21:23;6.43;;;1.70;;
72573;SDS011;60603;52.548;13.420;2023-02-28T09:23:49;3.92;;;1.50;;
72573;SDS011;60603;52.548;13.420;2023-02-28T09:26:17;6.22;;;1.65;;
72573;SDS011;60603;52.548;13.420;2023-02-28T09:28:44;4.90;;;2.15;;
72573;SDS011;60603;52.548;13.420;2023-02-28T09:31:12;6.70;;;1.73;;
72573;SDS011;60603;52.548;13.420;2023-02-28T09:33:39;3.95;;;1.65;;
72573;SDS011;60603;52.548;13.420;2023-02-28T09:36:05;3.72;;;1.63;;
72573;SDS011;60603;52.548;13.420;2023-02-28T09:38:31;4.28;;;1.90;;
72573;SDS011;60603;52.548;13.420;2023-02-28T09:40:58;4.90;;;1.85;;
72573;SDS011;60603;52.548;13.420;2023-02-28T09:43:28;6.53;;;1.60;;
72573;SDS011;60603;52.548;13.420;2023-02-28T09:48:48;5.03;;;1.38;;
72573;SDS011;60603;52.548;13.420;2023-02-28T09:53:56;2.83;;;1.20;;
72573;SDS011;60603;52.548;13.420;2023-02-28T09:56:27;3.17;;;1.40;;
72573;SDS011;60603;52.548;13.420;2023-02-28T09:59:09;5.10;;;1.42;;
72573;SDS011;60603;52.548;13.420;2023-02-28T10:01:39;5.40;;;1.35;;
72573;SDS011;60603;52.548;13.420;2023-02-28T10:04:25;4.45;;;1.45;;
72573;SDS011;60603;52.548;13.420;2023-02-28T10:07:04;6.63;;;1.80;;
72573;SDS011;60603;52.548;13.420;2023-02-28T10:09:42;4.22;;;1.52;;
72573;SDS011;60603;52.548;13.420;2023-02-28T10:12:09;5.25;;;1.33;;
72573;SDS011;60603;52.548;13.420;2023-02-28T10:14:36;3.13;;;1.10;;
72573;SDS011;60603;52.548;13.420;2023-02-28T10:17:04;3.22;;;1.13;;
72573;SDS011;60603;52.548;13.420;2023-02-28T10:19:39;2.97;;;1.30;;
72573;SDS011;60603;52.548;13.420;2023-02-28T10:22:14;5.32;;;1.50;;
72573;SDS011;60603;52.548;13.420;2023-02-28T10:24:46;3.92;;;1.25;;
72573;SDS011;60603;52.548;13.420;2023-02-28T10:29:48;5.10;;;1.60;;
72573;SDS011;60603;52.548;13.420;2023-02-28T10:32:20;2.83;;;1.50;;
72573;SDS011;60603;52.548;13.420;2023-02-28T10:35:09;4.50;;;1.42;;
72573;SDS011;60603;52.548;13.420;2023-02-28T10:37:47;5.20;;;1.40;;
72573;SDS011;60603;52.548;13.420;2023-02-28T10:43:03;4.60;;;1.25;;
72573;SDS011;60603;52.548;13.420;2023-02-28T10:46:30;2.20;;;0.98;;
72573;SDS011;60603;52.548;13.420;2023-02-28T10:49:36;2.65;;;1.27;;
72573;SDS011;60603;52.548;13.420;2023-02-28T10:51:41;3.58;;;1.60;;
72573;SDS011;60603;52.548;13.420;2023-02-28T10:54:18;4.43;;;1.10;;
72573;SDS011;60603;52.548;13.420;2023-02-28T10:56:45;4.22;;;1.42;;
72573;SDS011;60603;52.548;13.420;2023-02-28T11:01:44;1.98;;;1.13;;
72573;SDS011;60603;52.548;13.420;2023-02-28T11:09:31;5.13;;;1.38;;
72573;SDS011;60603;52.548;13.420;2023-02-28T11:11:58;4.70;;;1.50;;
72573;SDS011;60603;52.548;13.420;2023-02-28T11:14:25;4.95;;;1.60;;
72573;SDS011;60603;52.548;13.420;2023-02-28T11:16:53;3.83;;;1.42;;
72573;SDS011;60603;52.548;13.420;2023-02-28T11:19:23;3.10;;;1.45;;
72573;SDS011;60603;52.548;13.420;2023-02-28T11:21:57;4.00;;;1.60;;
72573;SDS011;60603;52.548;13.420;2023-02-28T11:24:27;5.85;;;1.90;;
72573;SDS011;60603;52.548;13.420;2023-02-28T11:26:54;3.95;;;1.55;;
72573;SDS011;60603;52.548;13.420;2023-02-28T11:29:25;3.90;;;1.88;;
72573;SDS011;60603;52.548;13.420;2023-02-28T11:34:44;4.47;;;1.23;;
72573;SDS011;60603;52.548;13.420;2023-02-28T11:37:13;5.60;;;1.80;;
72573;SDS011;60603;52.548;13.420;2023-02-28T11:39:44;4.82;;;1.65;;
72573;SDS011;60603;52.548;13.420;2023-02-28T11:47:49;4.88;;;1.80;;
72573;SDS011;60603;52.548;13.420;2023-02-28T11:55:54;3.95;;;1.63;;
72573;SDS011;60603;52.548;13.420;2023-02-28T12:07:00;3.33;;;1.30;;
72573;SDS011;60603;52.548;13.420;2023-02-28T12:09:47;5.38;;;1.55;;
72573;SDS011;60603;52.548;13.420;2023-02-28T12:12:35;4.88;;;1.98;;
72573;SDS011;60603;52.548;13.420;2023-02-28T12:20:46;5.95;;;1.92;;
72573;SDS011;60603;52.548;13.420;2023-02-28T12:28:41;3.78;;;1.70;;
72573;SDS011;60603;52.548;13.420;2023-02-28T12:31:11;4.13;;;1.85;;
72573;SDS011;60603;52.548;13.420;2023-02-28T12:33:58;3.55;;;1.80;;
72573;SDS011;60603;52.548;13.420;2023-02-28T12:36:45;6.93;;;1.92;;
72573;SDS011;60603;52.548;13.420;2023-02-28T12:39:15;6.65;;;2.30;;
72573;SDS011;60603;52.548;13.420;2023-02-28T12:41:50;5.43;;;2.03;;
72573;SDS011;60603;52.548;13.420;2023-02-28T12:44:26;4.78;;;1.73;;
72573;SDS011;60603;52.548;13.420;2023-02-28T12:47:04;5.18;;;1.73;;
72573;SDS011;60603;52.548;13.420;2023-02-28T12:49:37;6.47;;;2.25;;
72573;SDS011;60603;52.548;13.420;2023-02-28T12:52:05;4.05;;;1.98;;
72573;SDS011;60603;52.548;13.420;2023-02-28T12:54:48;5.80;;;1.95;;
72573;SDS011;60603;52.548;13.420;2023-02-28T12:57:19;5.07;;;2.30;;
72573;SDS011;60603;52.548;13.420;2023-02-28T12:59:55;6.13;;;2.00;;
72573;SDS011;60603;52.548;13.420;2023-02-28T13:05:22;5.00;;;1.83;;
72573;SDS011;60603;52.548;13.420;2023-02-28T13:11:30;5.95;;;2.40;;
72573;SDS011;60603;52.548;13.420;2023-02-28T13:14:01;4.10;;;1.88;;
72573;SDS011;60603;52.548;13.420;2023-02-28T13:16:46;4.85;;;2.28;;
72573;SDS011;60603;52.548;13.420;2023-02-28T13:19:16;6.13;;;2.33;;
72573;SDS011;60603;52.548;13.420;2023-02-28T13:21:43;5.32;;;2.30;;
72573;SDS011;60603;52.548;13.420;2023-02-28T13:24:10;5.25;;;1.98;;
72573;SDS011;60603;52.548;13.420;2023-02-28T13:34:33;7.32;;;2.47;;
72573;SDS011;60603;52.548;13.420;2023-02-28T13:39:54;4.70;;;2.00;;
72573;SDS011;60603;52.548;13.420;2023-02-28T13:42:48;8.77;;;3.22;;
72573;SDS011;60603;52.548;13.420;2023-02-28T13:45:28;4.30;;;1.90;;
72573;SDS011;60603;52.548;13.420;2023-02-28T13:48:02;6.28;;;1.98;;
72573;SDS011;60603;52.548;13.420;2023-02-28T13:50:30;5.95;;;2.08;;
72573;SDS011;60603;52.548;13.420;2023-02-28T14:07:25;5.53;;;2.10;;
72573;SDS011;60603;52.548;13.420;2023-02-28T14:10:19;5.57;;;2.08;;
72573;SDS011;60603;52.548;13.420;2023-02-28T14:15:36;6.78;;;2.35;;
72573;SDS011;60603;52.548;13.420;2023-02-28T14:18:12;8.07;;;2.10;;
72573;SDS011;60603;52.548;13.420;2023-02-28T14:20:41;4.72;;;2.17;;
72573;SDS011;60603;52.548;13.420;2023-02-28T14:28:51;6.13;;;2.22;;
72573;SDS011;60603;52.548;13.420;2023-02-28T14:31:29;4.43;;;1.90;;
72573;SDS011;60603;52.548;13.420;2023-02-28T14:36:58;5.10;;;2.25;;
72573;SDS011;60603;52.548;13.420;2023-02-28T14:39:26;5.93;;;2.42;;
72573;SDS011;60603;52.548;13.420;2023-02-28T14:41:53;5.50;;;2.05;;
72573;SDS011;60603;52.548;13.420;2023-02-28T14:46:46;5.07;;;2.58;;
72573;SDS011;60603;52.548;13.420;2023-02-28T14:54:36;6.68;;;1.70;;
72573;SDS011;60603;52.548;13.420;2023-02-28T14:57:03;4.75;;;1.70;;
72573;SDS011;60603;52.548;13.420;2023-02-28T14:59:35;5.45;;;2.00;;
72573;SDS011;60603;52.548;13.420;2023-02-28T15:02:18;7.45;;;2.28;;
72573;SDS011;60603;52.548;13.420;2023-02-28T15:04:54;6.88;;;1.98;;
72573;SDS011;60603;52.548;13.420;2023-02-28T15:07:20;4.68;;;1.80;;
72573;SDS011;60603;52.548;13.420;2023-02-28T15:12:53;4.22;;;1.95;;
72573;SDS011;60603;52.548;13.420;2023-02-28T15:15:20;5.35;;;1.88;;
72573;SDS011;60603;52.548;13.420;2023-02-28T15:17:48;6.57;;;2.55;;
72573;SDS011;60603;52.548;13.420;2023-02-28T15:20:16;6.80;;;2.42;;
72573;SDS011;60603;52.548;13.420;2023-02-28T15:22:42;5.93;;;2.33;;
72573;SDS011;60603;52.548;13.420;2023-02-28T15:25:09;5.28;;;2.20;;
72573;SDS011;60603;52.548;13.420;2023-02-28T15:27:42;4.07;;;1.85;;
72573;SDS011;60603;52.548;13.420;2023-02-28T15:30:15;6.22;;;2.58;;
72573;SDS011;60603;52.548;13.420;2023-02-28T15:33:01;5.38;;;2.00;;
72573;SDS011;60603;52.548;13.420;2023-02-28T15:35:30;4.85;;;2.00;;
72573;SDS011;60603;52.548;13.420;2023-02-28T15:38:02;6.47;;;1.92;;
72573;SDS011;60603;52.548;13.420;2023-02-28T15:40:40;5.93;;;2.22;;
72573;SDS011;60603;52.548;13.420;2023-02-28T15:43:13;6.18;;;2.38;;
72573;SDS011;60603;52.548;13.420;2023-02-28T15:45:47;5.57;;;1.92;;
72573;SDS011;60603;52.548;13.420;2023-02-28T15:48:16;6.43;;;2.22;;
72573;SDS011;60603;52.548;13.420;2023-02-28T15:50:44;5.55;;;2.25;;
72573;SDS011;60603;52.548;13.420;2023-02-28T15:53:17;6.50;;;2.38;;
72573;SDS011;60603;52.548;13.420;2023-02-28T15:55:51;4.32;;;2.00;;
72573;SDS011;60603;52.548;13.420;2023-02-28T15:58:22;7.80;;;2.38;;
72573;SDS011;60603;52.548;13.420;2023-02-28T16:00:59;4.95;;;2.20;;
72573;SDS011;60603;52.548;13.420;2023-02-28T16:03:32;6.15;;;2.10;;
72573;SDS011;60603;52.548;13.420;2023-02-28T16:08:42;4.45;;;2.20;;
72573;SDS011;60603;52.548;13.420;2023-02-28T16:11:08;5.40;;;2.45;;
72573;SDS011;60603;52.548;13.420;2023-02-28T16:13:36;5.55;;;2.33;;
72573;SDS011;60603;52.548;13.420;2023-02-28T16:16:02;4.40;;;1.92;;
72573;SDS011;60603;52.548;13.420;2023-02-28T16:18:28;6.30;;;2.40;;
72573;SDS011;60603;52.548;13.420;2023-02-28T16:20:54;6.05;;;2.20;;
72573;SDS011;60603;52.548;13.420;2023-02-28T16:23:20;5.72;;;2.40;;
72573;SDS011;60603;52.548;13.420;2023-02-28T16:25:46;8.23;;;2.47;;
72573;SDS011;60603;52.548;13.420;2023-02-28T16:28:17;8.05;;;2.80;;
72573;SDS011;60603;52.548;13.420;2023-02-28T16:30:48;7.07;;;2.20;;
72573;SDS011;60603;52.548;13.420;2023-02-28T16:33:17;5.40;;;2.40;;
72573;SDS011;60603;52.548;13.420;2023-02-28T16:35:42;6.20;;;2.00;;
72573;SDS011;60603;52.548;13.420;2023-02-28T16:38:08;7.03;;;2.50;;
72573;SDS011;60603;52.548;13.420;2023-02-28T16:40:35;5.35;;;2.22;;
72573;SDS011;60603;52.548;13.420;2023-02-28T16:43:04;7.80;;;2.78;;
72573;SDS011;60603;52.548;13.420;2023-02-28T16:45:32;5.13;;;2.15;;
72573;SDS011;60603;52.548;13.420;2023-02-28T16:47:59;6.60;;;2.45;;
72573;SDS011;60603;52.548;13.420;2023-02-28T16:50:26;6.07;;;2.65;;
72573;SDS011;60603;52.548;13.420;2023-02-28T16:52:54;5.47;;;2.50;;
72573;SDS011;60603;52.548;13.420;2023-02-28T16:55:21;7.25;;;3.10;;
72573;SDS011;60603;52.548;13.420;2023-02-28T16:57:50;7.47;;;2.90;;
72573;SDS011;60603;52.548;13.420;2023-02-28T17:00:18;8.05;;;3.13;;
72573;SDS011;60603;52.548;13.420;2023-02-28T17:02:44;4.18;;;2.42;;
72573;SDS011;60603;52.548;13.420;2023-02-28T17:05:10;7.28;;;3.15;;
72573;SDS011;60603;52.548;13.420;2023-02-28T17:07:37;11.20;;;3.10;;
72573;SDS011;60603;52.548;13.420;2023-02-28T17:10:15;6.88;;;2.70;;
72573;SDS011;60603;52.548;13.420;2023-02-28T17:12:46;8.52;;;3.03;;
72573;SDS011;60603;52.548;13.420;2023-02-28T17:15:13;5.20;;;2.47;;
72573;SDS011;60603;52.548;13.420;2023-02-28T17:17:40;5.40;;;2.67;;
72573;SDS011;60603;52.548;13.420;2023-02-28T17:20:09;6.28;;;2.83;;